sensor_id;sensor_type;location;lat;lon;timestamp;pressure;altitude;pressure_sealevel;temperature;humidity
79799;BME280;69283;48.024;11.090;2023-11-21T00:00:17;94900.03;;;7.60;76.26
79799;BME280;69283;48.024;11.090;2023-11-21T00:03:03;94874.47;;;7.66;76.28
79799;BME280;69283;48.024;11.090;2023-11-21T00:06:02;94879.00;;;7.74;75.53
79799;BME280;69283;48.024;11.090;2023-11-21T00:09:15;94855.47;;;7.62;75.20
79799;BME280;69283;48.024;11.090;2023-11-21T00:12:02;94848.94;;;7.43;75.37
79799;BME280;69283;48.024;11.090;2023-11-21T00:14:43;94858.09;;;7.71;75.15
79799;BME280;69283;48.024;11.090;2023-11-21T00:17:28;94835.97;;;7.57;73.99
79799;BME280;69283;48.024;11.090;2023-11-21T00:20:14;94830.91;;;7.55;75.02
79799;BME280;69283;48.024;11.090;2023-11-21T00:25:39;94826.78;;;7.58;75.89
79799;BME280;69283;48.024;11.090;2023-11-21T00:28:26;94846.59;;;7.62;74.94
79799;BME280;69283;48.024;11.090;2023-11-21T00:31:13;94824.69;;;7.43;75.55
79799;BME280;69283;48.024;11.090;2023-11-21T00:33:49;94816.97;;;7.53;75.56
79799;BME280;69283;48.024;11.090;2023-11-21T00:36:22;94813.63;;;7.56;74.69
79799;BME280;69283;48.024;11.090;2023-11-21T00:39:35;94798.31;;;7.27;75.06
79799;BME280;69283;48.024;11.090;2023-11-21T00:45:43;94804.00;;;7.05;76.28
79799;BME280;69283;48.024;11.090;2023-11-21T00:48:45;94832.13;;;7.16;75.58
79799;BME280;69283;48.024;11.090;2023-11-21T00:54:39;94817.09;;;6.86;76.66
79799;BME280;69283;48.024;11.090;2023-11-21T00:57:18;94821.00;;;6.97;76.17
79799;BME280;69283;48.024;11.090;2023-11-21T01:00:13;94817.84;;;6.95;76.02
79799;BME280;69283;48.024;11.090;2023-11-21T01:02:59;94814.41;;;6.86;76.18
79799;BME280;69283;48.024;11.090;2023-11-21T01:05:58;94828.38;;;7.09;75.30
79799;BME280;69283;48.024;11.090;2023-11-21T01:08:26;94822.09;;;6.96;75.32
79799;BME280;69283;48.024;11.090;2023-11-21T01:11:04;94812.88;;;7.06;74.56
79799;BME280;69283;48.024;11.090;2023-11-21T01:16:46;94819.19;;;6.80;75.49
79799;BME280;69283;48.024;11.090;2023-11-21T01:25:11;94814.88;;;6.88;75.25
79799;BME280;69283;48.024;11.090;2023-11-21T01:27:37;94825.25;;;6.98;74.77
79799;BME280;69283;48.024;11.090;2023-11-21T01:30:38;94837.63;;;6.99;75.50
79799;BME280;69283;48.024;11.090;2023-11-21T01:33:23;94815.84;;;6.83;74.88
79799;BME280;69283;48.024;11.090;2023-11-21T01:36:10;94827.03;;;6.94;75.04
79799;BME280;69283;48.024;11.090;2023-11-21T01:38:42;94838.56;;;7.03;74.43
79799;BME280;69283;48.024;11.090;2023-11-21T01:41:18;94834.09;;;7.07;74.27
79799;BME280;69283;48.024;11.090;2023-11-21T01:44:29;94831.81;;;7.18;73.84
79799;BME280;69283;48.024;11.090;2023-11-21T01:46:59;94833.00;;;7.08;73.99
79799;BME280;69283;48.024;11.090;2023-11-21T01:49:33;94829.72;;;7.23;73.09
79799;BME280;69283;48.024;11.090;2023-11-21T01:52:12;94852.00;;;7.32;72.74
79799;BME280;69283;48.024;11.090;2023-11-21T01:54:38;94848.84;;;7.30;72.25
79799;BME280;69283;48.024;11.090;2023-11-21T01:57:06;94848.47;;;7.41;72.37
79799;BME280;69283;48.024;11.090;2023-11-21T01:59:43;94851.66;;;7.43;72.33
79799;BME280;69283;48.024;11.090;2023-11-21T02:02:27;94839.13;;;7.38;72.68
79799;BME280;69283;48.024;11.090;2023-11-21T02:05:32;94857.50;;;7.45;73.61
79799;BME280;69283;48.024;11.090;2023-11-21T02:08:14;94836.44;;;7.38;73.17
79799;BME280;69283;48.024;11.090;2023-11-21T02:10:42;94840.84;;;7.43;74.68
79799;BME280;69283;48.024;11.090;2023-11-21T02:13:35;94835.63;;;7.38;74.93
79799;BME280;69283;48.024;11.090;2023-11-21T02:16:26;94841.97;;;7.42;75.25
79799;BME280;69283;48.024;11.090;2023-11-21T02:19:20;94817.19;;;7.27;76.22
79799;BME280;69283;48.024;11.090;2023-11-21T02:22:06;94804.34;;;7.24;76.34
79799;BME280;69283;48.024;11.090;2023-11-21T02:24:50;94823.41;;;7.40;76.56
79799;BME280;69283;48.024;11.090;2023-11-21T02:27:16;94823.47;;;7.31;76.61
79799;BME280;69283;48.024;11.090;2023-11-21T02:35:40;94809.47;;;7.17;76.31
79799;BME280;69283;48.024;11.090;2023-11-21T02:38:36;94814.81;;;7.26;76.31
79799;BME280;69283;48.024;11.090;2023-11-21T02:41:31;94805.06;;;7.13;75.89
79799;BME280;69283;48.024;11.090;2023-11-21T02:47:45;94815.31;;;7.19;76.65
79799;BME280;69283;48.024;11.090;2023-11-21T02:50:51;94807.38;;;7.23;76.26
79799;BME280;69283;48.024;11.090;2023-11-21T02:53:38;94807.22;;;7.19;76.78
79799;BME280;69283;48.024;11.090;2023-11-21T02:56:47;94818.69;;;7.37;76.55
79799;BME280;69283;48.024;11.090;2023-11-21T02:59:40;94827.97;;;7.27;76.29
79799;BME280;69283;48.024;11.090;2023-11-21T03:05:58;94814.69;;;7.22;75.34
79799;BME280;69283;48.024;11.090;2023-11-21T03:08:44;94805.97;;;7.17;75.89
79799;BME280;69283;48.024;11.090;2023-11-21T03:11:47;94792.38;;;7.13;75.91
79799;BME280;69283;48.024;11.090;2023-11-21T03:14:27;94821.44;;;7.28;76.46
79799;BME280;69283;48.024;11.090;2023-11-21T03:20:12;94799.09;;;7.28;76.39
79799;BME280;69283;48.024;11.090;2023-11-21T03:32:30;94787.72;;;7.22;76.30
79799;BME280;69283;48.024;11.090;2023-11-21T03:35:25;94787.91;;;7.17;76.59
79799;BME280;69283;48.024;11.090;2023-11-21T03:41:49;94811.38;;;7.38;75.89
79799;BME280;69283;48.024;11.090;2023-11-21T03:44:34;94803.69;;;7.27;76.52
79799;BME280;69283;48.024;11.090;2023-11-21T03:47:21;94801.53;;;7.21;76.62
79799;BME280;69283;48.024;11.090;2023-11-21T03:59:22;94841.34;;;7.36;77.59
79799;BME280;69283;48.024;11.090;2023-11-21T04:02:08;94824.81;;;7.25;77.33
79799;BME280;69283;48.024;11.090;2023-11-21T04:04:54;94818.50;;;7.21;77.04
79799;BME280;69283;48.024;11.090;2023-11-21T04:07:40;94818.00;;;7.19;77.59
79799;BME280;69283;48.024;11.090;2023-11-21T04:17:00;94842.56;;;7.26;78.29
79799;BME280;69283;48.024;11.090;2023-11-21T04:19:54;94849.00;;;7.34;78.61
79799;BME280;69283;48.024;11.090;2023-11-21T04:22:58;94840.44;;;7.32;78.28
79799;BME280;69283;48.024;11.090;2023-11-21T04:25:44;94833.88;;;7.21;78.59
79799;BME280;69283;48.024;11.090;2023-11-21T04:28:30;94823.13;;;7.12;78.59
79799;BME280;69283;48.024;11.090;2023-11-21T04:31:33;94837.53;;;7.16;78.45
79799;BME280;69283;48.024;11.090;2023-11-21T04:37:02;94826.03;;;7.07;78.92
79799;BME280;69283;48.024;11.090;2023-11-21T04:42:45;94848.31;;;7.16;78.84
79799;BME280;69283;48.024;11.090;2023-11-21T04:45:38;94818.31;;;6.97;79.74
79799;BME280;69283;48.024;11.090;2023-11-21T04:48:11;94839.03;;;7.05;79.26
79799;BME280;69283;48.024;11.090;2023-11-21T04:50:43;94836.66;;;7.04;78.80
79799;BME280;69283;48.024;11.090;2023-11-21T04:53:34;94842.31;;;7.11;79.42
79799;BME280;69283;48.024;11.090;2023-11-21T04:56:14;94838.38;;;7.08;79.22
79799;BME280;69283;48.024;11.090;2023-11-21T04:59:01;94829.38;;;7.04;79.07
79799;BME280;69283;48.024;11.090;2023-11-21T05:01:41;94846.41;;;7.17;78.21
79799;BME280;69283;48.024;11.090;2023-11-21T05:04:09;94840.59;;;7.06;79.28
79799;BME280;69283;48.024;11.090;2023-11-21T05:06:42;94851.66;;;7.13;79.36
79799;BME280;69283;48.024;11.090;2023-11-21T05:12:22;94849.94;;;7.09;79.90
79799;BME280;69283;48.024;11.090;2023-11-21T05:14:56;94836.03;;;6.98;79.68
79799;BME280;69283;48.024;11.090;2023-11-21T05:18:01;94824.53;;;6.89;78.83
79799;BME280;69283;48.024;11.090;2023-11-21T05:20:43;94831.69;;;6.85;78.95
79799;BME280;69283;48.024;11.090;2023-11-21T05:23:29;94839.38;;;6.95;78.55
79799;BME280;69283;48.024;11.090;2023-11-21T05:26:31;94841.09;;;6.99;78.75
79799;BME280;69283;48.024;11.090;2023-11-21T05:29:04;94854.72;;;7.03;78.15
79799;BME280;69283;48.024;11.090;2023-11-21T05:34:57;94834.84;;;6.87;79.14
79799;BME280;69283;48.024;11.090;2023-11-21T05:37:51;94844.31;;;6.93;78.10
79799;BME280;69283;48.024;11.090;2023-11-21T05:40:38;94819.22;;;6.71;79.33
79799;BME280;69283;48.024;11.090;2023-11-21T05:43:19;94856.66;;;6.94;78.10
79799;BME280;69283;48.024;11.090;2023-11-21T05:46:04;94851.28;;;6.94;78.44
79799;BME280;69283;48.024;11.090;2023-11-21T05:48:30;94852.59;;;6.88;78.68
79799;BME280;69283;48.024;11.090;2023-11-21T05:51:13;94849.28;;;6.82;77.72
79799;BME280;69283;48.024;11.090;2023-11-21T05:53:39;94855.28;;;6.88;78.43
79799;BME280;69283;48.024;11.090;2023-11-21T05:56:12;94845.81;;;6.73;78.49
79799;BME280;69283;48.024;11.090;2023-11-21T05:58:58;94851.34;;;6.77;78.56
79799;BME280;69283;48.024;11.090;2023-11-21T06:01:28;94837.16;;;6.67;78.10
79799;BME280;69283;48.024;11.090;2023-11-21T06:03:58;94857.38;;;6.82;77.76
79799;BME280;69283;48.024;11.090;2023-11-21T06:06:24;94851.69;;;6.75;77.76
79799;BME280;69283;48.024;11.090;2023-11-21T06:08:50;94854.97;;;6.81;77.65
79799;BME280;69283;48.024;11.090;2023-11-21T06:11:16;94858.00;;;6.79;77.89
79799;BME280;69283;48.024;11.090;2023-11-21T06:13:41;94848.72;;;6.68;77.97
79799;BME280;69283;48.024;11.090;2023-11-21T06:16:07;94870.03;;;6.82;78.20
79799;BME280;69283;48.024;11.090;2023-11-21T06:18:32;94870.97;;;6.86;77.95
79799;BME280;69283;48.024;11.090;2023-11-21T06:20:57;94856.59;;;6.73;77.56
79799;BME280;69283;48.024;11.090;2023-11-21T06:24:00;94843.84;;;6.61;77.29
79799;BME280;69283;48.024;11.090;2023-11-21T06:26:27;94874.47;;;6.78;77.46
79799;BME280;69283;48.024;11.090;2023-11-21T06:28:54;94857.28;;;6.61;77.06
79799;BME280;69283;48.024;11.090;2023-11-21T06:31:20;94855.84;;;6.64;76.64
79799;BME280;69283;48.024;11.090;2023-11-21T06:33:49;94863.56;;;6.74;77.00
79799;BME280;69283;48.024;11.090;2023-11-21T06:36:25;94845.75;;;6.61;76.32
79799;BME280;69283;48.024;11.090;2023-11-21T06:38:54;94861.66;;;6.75;76.09
79799;BME280;69283;48.024;11.090;2023-11-21T06:41:20;94854.41;;;6.66;76.05
79799;BME280;69283;48.024;11.090;2023-11-21T06:43:45;94865.50;;;6.65;76.14
79799;BME280;69283;48.024;11.090;2023-11-21T06:46:14;94868.81;;;6.70;75.79
79799;BME280;69283;48.024;11.090;2023-11-21T06:48:42;94878.75;;;6.79;75.41
79799;BME280;69283;48.024;11.090;2023-11-21T06:51:10;94881.44;;;6.79;75.75
79799;BME280;69283;48.024;11.090;2023-11-21T06:53:36;94884.59;;;6.81;75.26
79799;BME280;69283;48.024;11.090;2023-11-21T06:56:02;94882.75;;;6.72;75.29
79799;BME280;69283;48.024;11.090;2023-11-21T06:58:28;94892.88;;;6.76;75.26
79799;BME280;69283;48.024;11.090;2023-11-21T07:00:53;94888.97;;;6.64;75.07
79799;BME280;69283;48.024;11.090;2023-11-21T07:03:18;94884.81;;;6.67;74.83
79799;BME280;69283;48.024;11.090;2023-11-21T07:05:46;94900.47;;;6.74;75.77
79799;BME280;69283;48.024;11.090;2023-11-21T07:08:11;94888.91;;;6.73;75.31
79799;BME280;69283;48.024;11.090;2023-11-21T07:10:40;94900.47;;;6.74;75.54
79799;BME280;69283;48.024;11.090;2023-11-21T07:13:07;94894.91;;;6.79;75.55
79799;BME280;69283;48.024;11.090;2023-11-21T07:15:38;94898.56;;;6.74;75.60
79799;BME280;69283;48.024;11.090;2023-11-21T07:18:08;94908.22;;;6.75;75.35
79799;BME280;69283;48.024;11.090;2023-11-21T07:20:33;94900.16;;;6.75;74.63
79799;BME280;69283;48.024;11.090;2023-11-21T07:22:59;94917.56;;;6.78;75.19
79799;BME280;69283;48.024;11.090;2023-11-21T07:25:25;94899.88;;;6.59;75.24
79799;BME280;69283;48.024;11.090;2023-11-21T07:27:51;94912.03;;;6.74;75.90
79799;BME280;69283;48.024;11.090;2023-11-21T07:30:19;94924.53;;;6.79;75.10
79799;BME280;69283;48.024;11.090;2023-11-21T07:32:44;94922.16;;;6.77;75.33
79799;BME280;69283;48.024;11.090;2023-11-21T07:35:10;94922.94;;;6.78;75.92
79799;BME280;69283;48.024;11.090;2023-11-21T07:37:35;94926.75;;;6.85;75.36
79799;BME280;69283;48.024;11.090;2023-11-21T07:40:00;94922.47;;;6.84;74.47
79799;BME280;69283;48.024;11.090;2023-11-21T07:42:26;94929.44;;;6.85;75.06
79799;BME280;69283;48.024;11.090;2023-11-21T07:44:53;94926.09;;;6.80;75.06
79799;BME280;69283;48.024;11.090;2023-11-21T07:47:19;94937.50;;;6.85;75.19
79799;BME280;69283;48.024;11.090;2023-11-21T07:49:44;94933.25;;;6.84;74.84
79799;BME280;69283;48.024;11.090;2023-11-21T07:52:10;94937.66;;;6.80;75.34
79799;BME280;69283;48.024;11.090;2023-11-21T07:54:35;94928.66;;;6.85;75.18
79799;BME280;69283;48.024;11.090;2023-11-21T07:57:01;94931.81;;;6.87;75.11
79799;BME280;69283;48.024;11.090;2023-11-21T07:59:26;94928.94;;;6.92;75.14
79799;BME280;69283;48.024;11.090;2023-11-21T08:01:52;94927.53;;;6.86;75.50
79799;BME280;69283;48.024;11.090;2023-11-21T08:04:17;94924.06;;;6.85;75.62
79799;BME280;69283;48.024;11.090;2023-11-21T08:06:43;94934.13;;;6.97;75.45
79799;BME280;69283;48.024;11.090;2023-11-21T08:09:09;94939.19;;;6.98;75.33
79799;BME280;69283;48.024;11.090;2023-11-21T08:11:34;94933.03;;;6.98;75.15
79799;BME280;69283;48.024;11.090;2023-11-21T08:13:59;94937.78;;;7.01;75.10
79799;BME280;69283;48.024;11.090;2023-11-21T08:16:27;94943.03;;;6.89;76.03
79799;BME280;69283;48.024;11.090;2023-11-21T08:18:52;94943.50;;;6.91;75.93
79799;BME280;69283;48.024;11.090;2023-11-21T08:21:17;94929.56;;;6.89;75.73
79799;BME280;69283;48.024;11.090;2023-11-21T08:23:44;94921.03;;;6.87;75.88
79799;BME280;69283;48.024;11.090;2023-11-21T08:26:09;94931.91;;;6.99;75.58
79799;BME280;69283;48.024;11.090;2023-11-21T08:28:34;94936.47;;;7.07;75.46
79799;BME280;69283;48.024;11.090;2023-11-21T08:31:01;94940.44;;;7.10;76.00
79799;BME280;69283;48.024;11.090;2023-11-21T08:33:28;94928.41;;;7.07;75.65
79799;BME280;69283;48.024;11.090;2023-11-21T08:35:56;94923.34;;;7.06;75.20
79799;BME280;69283;48.024;11.090;2023-11-21T08:38:29;94929.53;;;7.06;75.54
79799;BME280;69283;48.024;11.090;2023-11-21T08:41:18;94949.91;;;7.16;76.05
79799;BME280;69283;48.024;11.090;2023-11-21T08:43:47;94950.03;;;7.19;75.90
79799;BME280;69283;48.024;11.090;2023-11-21T08:46:21;94923.50;;;7.00;75.71
79799;BME280;69283;48.024;11.090;2023-11-21T08:48:46;94932.69;;;7.08;76.20
79799;BME280;69283;48.024;11.090;2023-11-21T08:51:17;94930.44;;;7.10;75.43
79799;BME280;69283;48.024;11.090;2023-11-21T08:53:50;94946.41;;;7.24;75.75
79799;BME280;69283;48.024;11.090;2023-11-21T08:56:18;94923.28;;;7.14;76.03
79799;BME280;69283;48.024;11.090;2023-11-21T08:58:45;94938.72;;;7.35;76.02
79799;BME280;69283;48.024;11.090;2023-11-21T09:01:12;94950.09;;;7.40;76.56
79799;BME280;69283;48.024;11.090;2023-11-21T09:03:40;94918.19;;;7.21;76.46
79799;BME280;69283;48.024;11.090;2023-11-21T09:06:06;94938.53;;;7.40;76.05
79799;BME280;69283;48.024;11.090;2023-11-21T09:08:34;94944.09;;;7.43;76.44
79799;BME280;69283;48.024;11.090;2023-11-21T09:10:59;94951.00;;;7.53;76.03
79799;BME280;69283;48.024;11.090;2023-11-21T09:13:25;94934.03;;;7.52;75.55
79799;BME280;69283;48.024;11.090;2023-11-21T09:15:50;94957.16;;;7.62;75.71
79799;BME280;69283;48.024;11.090;2023-11-21T09:18:16;94952.38;;;7.59;75.15
79799;BME280;69283;48.024;11.090;2023-11-21T09:20:42;94960.56;;;7.71;76.13
79799;BME280;69283;48.024;11.090;2023-11-21T09:23:09;94960.69;;;7.75;75.66
79799;BME280;69283;48.024;11.090;2023-11-21T09:25:34;94957.63;;;7.85;75.88
79799;BME280;69283;48.024;11.090;2023-11-21T09:27:59;94963.22;;;8.01;75.27
79799;BME280;69283;48.024;11.090;2023-11-21T09:30:25;94954.94;;;8.47;73.88
79799;BME280;69283;48.024;11.090;2023-11-21T09:32:51;94951.44;;;9.25;71.68
79799;BME280;69283;48.024;11.090;2023-11-21T09:35:16;94962.69;;;9.39;70.08
79799;BME280;69283;48.024;11.090;2023-11-21T09:37:46;94963.44;;;9.15;70.21
79799;BME280;69283;48.024;11.090;2023-11-21T09:40:13;94964.69;;;9.06;71.07
79799;BME280;69283;48.024;11.090;2023-11-21T09:42:56;94964.16;;;9.25;70.62
79799;BME280;69283;48.024;11.090;2023-11-21T09:45:29;94983.31;;;9.32;70.52
79799;BME280;69283;48.024;11.090;2023-11-21T09:47:59;94973.69;;;9.10;70.55
79799;BME280;69283;48.024;11.090;2023-11-21T09:50:25;94973.81;;;9.01;71.51
79799;BME280;69283;48.024;11.090;2023-11-21T09:55:43;94981.94;;;8.80;71.82
79799;BME280;69283;48.024;11.090;2023-11-21T09:58:09;94972.69;;;8.69;72.34
79799;BME280;69283;48.024;11.090;2023-11-21T10:00:48;94981.91;;;8.68;72.62
79799;BME280;69283;48.024;11.090;2023-11-21T10:03:14;94970.53;;;8.63;73.46
79799;BME280;69283;48.024;11.090;2023-11-21T10:05:43;94982.59;;;8.65;73.17
79799;BME280;69283;48.024;11.090;2023-11-21T10:08:12;94987.09;;;8.61;73.67
79799;BME280;69283;48.024;11.090;2023-11-21T10:10:43;94972.31;;;8.59;73.27
79799;BME280;69283;48.024;11.090;2023-11-21T10:13:12;94967.00;;;8.50;73.81
79799;BME280;69283;48.024;11.090;2023-11-21T10:15:52;94963.06;;;8.47;73.70
79799;BME280;69283;48.024;11.090;2023-11-21T10:18:18;94961.81;;;8.45;73.36
79799;BME280;69283;48.024;11.090;2023-11-21T10:20:44;94977.13;;;8.53;73.67
79799;BME280;69283;48.024;11.090;2023-11-21T10:23:18;94982.66;;;8.57;74.04
79799;BME280;69283;48.024;11.090;2023-11-21T10:25:43;94985.47;;;8.60;73.50
79799;BME280;69283;48.024;11.090;2023-11-21T10:28:09;94968.91;;;8.49;74.04
79799;BME280;69283;48.024;11.090;2023-11-21T10:30:38;94984.69;;;8.60;73.75
79799;BME280;69283;48.024;11.090;2023-11-21T10:33:05;94974.88;;;8.55;73.71
79799;BME280;69283;48.024;11.090;2023-11-21T10:35:46;94973.88;;;8.60;73.23
79799;BME280;69283;48.024;11.090;2023-11-21T10:38:15;94973.44;;;8.58;73.40
79799;BME280;69283;48.024;11.090;2023-11-21T10:40:41;94978.66;;;8.63;73.17
79799;BME280;69283;48.024;11.090;2023-11-21T10:43:08;94978.16;;;8.61;73.46
79799;BME280;69283;48.024;11.090;2023-11-21T10:45:38;94976.09;;;8.45;73.90
79799;BME280;69283;48.024;11.090;2023-11-21T10:48:10;94982.31;;;8.58;73.20
79799;BME280;69283;48.024;11.090;2023-11-21T10:50:36;94977.25;;;8.57;72.60
79799;BME280;69283;48.024;11.090;2023-11-21T10:53:03;94976.91;;;8.58;72.20
79799;BME280;69283;48.024;11.090;2023-11-21T10:55:32;94971.28;;;8.51;72.63
79799;BME280;69283;48.024;11.090;2023-11-21T10:58:04;94951.66;;;8.42;73.75
79799;BME280;69283;48.024;11.090;2023-11-21T11:00:31;94971.06;;;8.56;72.76
79799;BME280;69283;48.024;11.090;2023-11-21T11:02:57;94961.47;;;8.46;73.76
79799;BME280;69283;48.024;11.090;2023-11-21T11:05:25;94954.56;;;8.37;73.08
79799;BME280;69283;48.024;11.090;2023-11-21T11:07:52;94961.03;;;8.44;72.39
79799;BME280;69283;48.024;11.090;2023-11-21T11:10:20;94969.81;;;8.53;72.96
79799;BME280;69283;48.024;11.090;2023-11-21T11:12:48;94965.88;;;8.51;73.42
79799;BME280;69283;48.024;11.090;2023-11-21T11:15:15;94960.34;;;8.47;72.47
79799;BME280;69283;48.024;11.090;2023-11-21T11:17:45;94961.81;;;8.45;72.81
79799;BME280;69283;48.024;11.090;2023-11-21T11:20:13;94970.03;;;8.48;72.51
79799;BME280;69283;48.024;11.090;2023-11-21T11:28:07;94956.91;;;8.38;73.46
79799;BME280;69283;48.024;11.090;2023-11-21T11:33:36;94975.09;;;8.50;73.28
79799;BME280;69283;48.024;11.090;2023-11-21T11:36:26;94964.28;;;8.50;73.14
79799;BME280;69283;48.024;11.090;2023-11-21T11:38:54;94950.06;;;8.41;73.68
79799;BME280;69283;48.024;11.090;2023-11-21T11:41:25;94961.47;;;8.46;73.19
79799;BME280;69283;48.024;11.090;2023-11-21T11:43:54;94970.59;;;8.54;73.53
79799;BME280;69283;48.024;11.090;2023-11-21T11:46:19;94958.22;;;8.53;73.06
79799;BME280;69283;48.024;11.090;2023-11-21T11:49:02;94951.78;;;8.45;72.97
79799;BME280;69283;48.024;11.090;2023-11-21T11:51:28;94955.41;;;8.49;72.73
79799;BME280;69283;48.024;11.090;2023-11-21T11:53:57;94962.84;;;8.52;73.32
79799;BME280;69283;48.024;11.090;2023-11-21T11:56:29;94978.38;;;8.56;73.51
79799;BME280;69283;48.024;11.090;2023-11-21T11:59:03;94961.13;;;8.48;72.98
79799;BME280;69283;48.024;11.090;2023-11-21T12:01:35;94971.28;;;8.51;73.47
79799;BME280;69283;48.024;11.090;2023-11-21T12:06:45;94971.59;;;8.49;73.17
79799;BME280;69283;48.024;11.090;2023-11-21T12:09:24;94971.59;;;8.49;73.06
79799;BME280;69283;48.024;11.090;2023-11-21T12:11:49;94960.56;;;8.42;73.50
79799;BME280;69283;48.024;11.090;2023-11-21T12:14:15;94972.06;;;8.51;73.19
79799;BME280;69283;48.024;11.090;2023-11-21T12:16:41;94961.47;;;8.46;73.78
79799;BME280;69283;48.024;11.090;2023-11-21T12:19:11;94968.91;;;8.49;73.00
79799;BME280;69283;48.024;11.090;2023-11-21T12:21:39;94960.34;;;8.47;73.44
79799;BME280;69283;48.024;11.090;2023-11-21T12:24:08;94962.84;;;8.52;73.16
79799;BME280;69283;48.024;11.090;2023-11-21T12:26:39;94958.44;;;8.48;73.03
79799;BME280;69283;48.024;11.090;2023-11-21T12:29:06;94966.78;;;8.55;73.13
79799;BME280;69283;48.024;11.090;2023-11-21T12:31:33;94953.50;;;8.50;72.62
79799;BME280;69283;48.024;11.090;2023-11-21T12:34:00;94971.66;;;8.62;72.17
79799;BME280;69283;48.024;11.090;2023-11-21T12:36:25;94959.00;;;8.53;72.71
79799;BME280;69283;48.024;11.090;2023-11-21T12:38:51;94964.13;;;8.67;72.23
79799;BME280;69283;48.024;11.090;2023-11-21T12:41:16;94958.63;;;8.64;73.11
79799;BME280;69283;48.024;11.090;2023-11-21T12:43:42;94964.25;;;8.71;72.98
79799;BME280;69283;48.024;11.090;2023-11-21T12:46:10;94969.44;;;8.76;72.56
79799;BME280;69283;48.024;11.090;2023-11-21T12:48:39;94970.69;;;8.78;73.10
79799;BME280;69283;48.024;11.090;2023-11-21T12:51:06;94979.84;;;8.86;71.91
79799;BME280;69283;48.024;11.090;2023-11-21T12:53:32;94965.44;;;8.82;72.38
79799;BME280;69283;48.024;11.090;2023-11-21T12:56:05;94977.94;;;8.87;72.33
79799;BME280;69283;48.024;11.090;2023-11-21T12:58:31;94985.16;;;8.95;72.13
79799;BME280;69283;48.024;11.090;2023-11-21T13:01:01;94968.59;;;8.84;72.42
79799;BME280;69283;48.024;11.090;2023-11-21T13:03:29;94985.16;;;8.95;72.20
79799;BME280;69283;48.024;11.090;2023-11-21T13:05:55;94974.22;;;8.91;72.94
79799;BME280;69283;48.024;11.090;2023-11-21T13:08:23;94983.13;;;8.92;72.56
79799;BME280;69283;48.024;11.090;2023-11-21T13:10:51;94970.03;;;8.81;72.07
79799;BME280;69283;48.024;11.090;2023-11-21T13:13:16;94982.88;;;8.84;72.39
79799;BME280;69283;48.024;11.090;2023-11-21T13:16:01;94983.84;;;8.80;70.99
79799;BME280;69283;48.024;11.090;2023-11-21T13:18:33;94971.66;;;8.62;70.06
79799;BME280;69283;48.024;11.090;2023-11-21T13:21:00;94981.69;;;8.61;70.66
79799;BME280;69283;48.024;11.090;2023-11-21T13:23:27;94982.31;;;8.58;69.62
79799;BME280;69283;48.024;11.090;2023-11-21T13:25:54;94980.63;;;8.53;69.80
79799;BME280;69283;48.024;11.090;2023-11-21T13:28:20;94978.13;;;8.48;69.84
79799;BME280;69283;48.024;11.090;2023-11-21T13:30:47;94966.53;;;8.48;68.79
79799;BME280;69283;48.024;11.090;2023-11-21T13:33:13;94981.94;;;8.47;68.95
79799;BME280;69283;48.024;11.090;2023-11-21T13:35:44;94976.88;;;8.46;69.29
79799;BME280;69283;48.024;11.090;2023-11-21T13:38:14;94987.34;;;8.47;69.44
79799;BME280;69283;48.024;11.090;2023-11-21T13:40:47;94985.81;;;8.38;69.33
79799;BME280;69283;48.024;11.090;2023-11-21T13:43:14;94992.75;;;8.47;69.63
79799;BME280;69283;48.024;11.090;2023-11-21T13:45:41;94998.38;;;8.42;69.52
79799;BME280;69283;48.024;11.090;2023-11-21T13:48:07;94996.44;;;8.43;69.28
79799;BME280;69283;48.024;11.090;2023-11-21T13:50:36;95008.03;;;8.43;69.88
79799;BME280;69283;48.024;11.090;2023-11-21T13:53:02;95010.88;;;8.47;69.73
79799;BME280;69283;48.024;11.090;2023-11-21T13:55:38;95001.19;;;8.46;69.58
79799;BME280;69283;48.024;11.090;2023-11-21T13:58:04;95004.88;;;8.41;69.71
79799;BME280;69283;48.024;11.090;2023-11-21T14:00:34;95009.31;;;8.58;68.67
79799;BME280;69283;48.024;11.090;2023-11-21T14:03:20;94998.03;;;8.44;69.43
79799;BME280;69283;48.024;11.090;2023-11-21T14:05:47;95014.81;;;8.49;70.36
79799;BME280;69283;48.024;11.090;2023-11-21T14:08:19;95004.56;;;8.43;71.47
79799;BME280;69283;48.024;11.090;2023-11-21T14:10:48;95013.69;;;8.50;72.01
79799;BME280;69283;48.024;11.090;2023-11-21T14:13:20;95005.78;;;8.45;72.20
79799;BME280;69283;48.024;11.090;2023-11-21T14:15:48;95028.84;;;8.64;72.25
79799;BME280;69283;48.024;11.090;2023-11-21T14:18:16;95023.50;;;8.55;73.57
79799;BME280;69283;48.024;11.090;2023-11-21T14:20:42;95026.53;;;8.53;73.21
79799;BME280;69283;48.024;11.090;2023-11-21T14:23:09;95028.78;;;8.51;73.17
79799;BME280;69283;48.024;11.090;2023-11-21T14:25:36;95020.22;;;8.49;72.96
79799;BME280;69283;48.024;11.090;2023-11-21T14:28:05;95034.50;;;8.50;72.43
79799;BME280;69283;48.024;11.090;2023-11-21T14:30:32;95028.97;;;8.46;72.59
79799;BME280;69283;48.024;11.090;2023-11-21T14:33:05;95024.13;;;8.31;72.68
79799;BME280;69283;48.024;11.090;2023-11-21T14:35:40;95035.88;;;8.35;72.35
79799;BME280;69283;48.024;11.090;2023-11-21T14:38:12;95031.53;;;8.22;71.86
79799;BME280;69283;48.024;11.090;2023-11-21T14:40:39;95025.78;;;8.23;72.10
79799;BME280;69283;48.024;11.090;2023-11-21T14:43:09;95011.78;;;8.01;72.74
79799;BME280;69283;48.024;11.090;2023-11-21T14:45:38;95032.53;;;8.09;72.35
79799;BME280;69283;48.024;11.090;2023-11-21T14:48:03;95047.22;;;8.20;73.05
79799;BME280;69283;48.024;11.090;2023-11-21T14:50:33;95044.72;;;8.15;71.92
79799;BME280;69283;48.024;11.090;2023-11-21T14:53:22;95024.03;;;7.98;71.93
79799;BME280;69283;48.024;11.090;2023-11-21T14:56:09;95027.84;;;7.97;71.80
79799;BME280;69283;48.024;11.090;2023-11-21T14:58:37;95031.34;;;7.98;72.57
79799;BME280;69283;48.024;11.090;2023-11-21T15:01:07;95040.88;;;7.95;71.83
79799;BME280;69283;48.024;11.090;2023-11-21T15:03:44;95050.41;;;7.92;71.43